Portada
METAR-TAF:

METAR-TAF

Aeropuertos :

Aeropuerto Internacional Gobernador Francisco Gabrielli

Mendoza, Argentina

latitud: 32-50S, longitud: 068-47W, altitud: 705 m

Observación

El informe se hizo hace 1 hora y 17 minutos, a las 05:00 UTC
Viento 8 kt del sur
Temperatura 19°C
Humedad 34%
Presión 1017 hPa
Visibilidad 10 km o más
sin nubes por debajo de 1500 m y sin presencia de cumulonimbus.

METAR: SAME 240500Z 18008KT CAVOK 19/03 Q1017

Hora: 03:17 (06:17 UTC)

Pronóstico

El informe se hizo hace 1 hora y 17 minutos, a las 05:00 UTC
Pronóstico válido del 24 a las 06 UTC al 25 a las 06 UTC
Viento 10 kt del sur-sureste
Visibilidad 10 km o más
sin nubes por debajo de 1500 m y sin presencia de cumulonimbus.
Evolucionando progresivamente
del 25 a las 02 UTC al 25 a las 04 UTC
Viento 5 kt del sur-suroeste

TAF: SAME 240500Z 2406/2506 20005KT CAVOK TN12/2410Z TX24/2420ZBECMG 2415/2417 16010KT BECMG 2502/2504 20005KT

Observaciones y pronósticos meteorológicos de más de 4000 aeropuertos (mensajes METAR y TAF).

Los puntos amarillos y rojos representan las estaciones disponibles.

Ponga el ratón en el punto deseado para ver el nombre de la estación.

Haga clic para ver las observaciones y los pronósticos meteorológicos.

Para cambiar el mapa : haga clic en los botones verdes con una cruz de color negro para hacer un zoom, en el botón verde con un guión para alejar o en las flechas verdes para mapas adyacentes.


METAR-TAF: